Startpagina
METAR-TAF:

METAR-TAF

Vliegvelden :

Internationale Luchthaven Antwerpen

Antwerpen, België

breedte: 51-12N, lengte: 004-28E, hoogte: 12 m

Actueel weer

Dit bericht is 31 minuten geleden gemaakt, om 23:20 UTC
Wind 5 kt uit het noordnoordoosten
Temperatuur -1°C
Vochtigheid 86%
Druk 1007 hPa
Zicht: 6000 m

METAR: EBAW 232320Z AUTO 03005KT 6000 // OVC011/// M01/M03 Q1007

Tijdstip: 00:51 (23:51 UTC)

Verwachting

Dit bericht is 41 minuten geleden gemaakt, om 23:10 UTC
Verwachting geldig van 24 om 00 UTC tot 24 om 09 UTC
Wind 3 kt uit variabele richting
Zicht: 6000 m
Gebroken wolken op 1200 ft
Tijdelijke
van 24 om 00 UTC tot 24 om 09 UTC
Zicht: 4000 m
Verspreide wolken op 1200 ft
nevel
Kans 30% :
Tijdelijke
van 24 om 02 UTC tot 24 om 09 UTC
Zicht: 0800 m
Weinig wolken op 800 ft
mistbanken

TAF: EBAW 232310Z 2400/2409 VRB03KT 6000 BKN012 TEMPO 2400/2409 4000 BR SCT012 PROB30 TEMPO 2402/2409 0800 BCFG FEW008

Waarnemingen en weersverwachtingen van meer dan 4000 vliegvelden (METAR en TAF).

De beschikbare stations zijn de gele en rode punten op de kaart.

Ga met uw muis naar het station om de naam te zien.

Klik dan om waarnemingen en weersverwachtingen te zien.

kaart wijzigen: klik op de groene knoppen met een zwart kruis om in te zoomen, op de groene knop met een streepje om uit te zoomen of op de groene pijlen voor aangrenzende kaarten.


METAR-TAF: